createdAt,value
2023-06-07T00:00:48.208Z,10.07
2023-06-07T00:03:15.962Z,19.23
2023-06-07T00:05:44.617Z,16.03
2023-06-07T00:08:11.334Z,18.80
2023-06-07T00:10:38.516Z,15.37
2023-06-07T00:13:05.478Z,14.57
2023-06-07T00:15:32.436Z,15.40
2023-06-07T00:18:02.086Z,11.13
2023-06-07T00:20:31.712Z,9.73
2023-06-07T00:22:59.176Z,16.50
2023-06-07T00:25:26.205Z,19.20
2023-06-07T00:27:54.102Z,16.73
2023-06-07T00:30:20.809Z,10.53
2023-06-07T00:32:48.255Z,16.43
2023-06-07T00:35:15.248Z,22.43
2023-06-07T00:37:42.451Z,14.93
2023-06-07T00:40:09.456Z,14.47
2023-06-07T00:42:36.354Z,12.83
2023-06-07T00:45:03.083Z,20.60
2023-06-07T00:47:30.730Z,21.67
2023-06-07T00:49:57.803Z,14.40
2023-06-07T00:52:25.104Z,16.07
2023-06-07T00:54:52.261Z,15.60
2023-06-07T00:57:18.978Z,13.33
2023-06-07T00:59:46.609Z,12.20
2023-06-07T01:02:16.816Z,13.90
2023-06-07T01:04:44.662Z,24.30
2023-06-07T01:07:12.395Z,23.43
2023-06-07T01:09:41.180Z,14.70
2023-06-07T01:12:14.567Z,14.13
2023-06-07T01:14:44.381Z,21.70
2023-06-07T01:17:13.925Z,15.67
2023-06-07T01:19:43.610Z,14.07
2023-06-07T01:22:11.731Z,21.90
2023-06-07T01:24:44.219Z,17.50
2023-06-07T01:27:11.401Z,11.63
2023-06-07T01:29:40.680Z,15.93
2023-06-07T01:32:13.267Z,14.30
2023-06-07T01:34:41.142Z,21.70
2023-06-07T01:37:08.917Z,23.67
2023-06-07T01:39:37.265Z,19.70
2023-06-07T01:42:05.070Z,18.77
2023-06-07T01:44:32.888Z,24.10
2023-06-07T01:46:59.599Z,14.57
2023-06-07T01:49:26.242Z,11.87
2023-06-07T01:51:52.872Z,19.30
2023-06-07T01:54:20.255Z,18.00
2023-06-07T01:56:57.130Z,17.87
2023-06-07T01:59:51.867Z,15.27
2023-06-07T02:02:22.963Z,19.00
2023-06-07T02:04:58.755Z,22.10
2023-06-07T02:07:29.549Z,23.00
2023-06-07T02:10:02.930Z,14.93
2023-06-07T02:12:31.450Z,16.77
2023-06-07T02:17:49.848Z,20.60
2023-06-07T02:20:18.299Z,16.73
2023-06-07T02:22:45.631Z,21.43
2023-06-07T02:25:12.268Z,14.93
2023-06-07T02:27:39.130Z,12.40
2023-06-07T02:30:06.791Z,15.00
2023-06-07T02:32:34.552Z,20.87
2023-06-07T02:35:02.180Z,21.70
2023-06-07T02:37:29.546Z,14.07
2023-06-07T02:39:56.230Z,16.40
2023-06-07T02:42:23.266Z,28.23
2023-06-07T02:44:50.169Z,13.77
2023-06-07T02:47:16.789Z,17.27
2023-06-07T02:49:44.014Z,18.43
2023-06-07T02:52:11.788Z,23.20
2023-06-07T02:54:41.000Z,21.80
2023-06-07T02:57:09.024Z,22.03
2023-06-07T02:59:35.745Z,14.37
2023-06-07T03:02:02.605Z,16.37
2023-06-07T03:04:32.046Z,20.37
2023-06-07T03:07:01.598Z,20.97
2023-06-07T03:09:33.539Z,18.70
2023-06-07T03:12:00.344Z,21.90
2023-06-07T03:14:32.259Z,15.30
2023-06-07T03:16:59.031Z,27.10
2023-06-07T03:19:26.438Z,17.70
2023-06-07T03:21:56.021Z,17.80
2023-06-07T03:24:24.510Z,18.83
2023-06-07T03:26:51.489Z,29.87
2023-06-07T03:29:19.002Z,23.30
2023-06-07T03:31:45.714Z,18.27
2023-06-07T03:34:16.383Z,21.10
2023-06-07T03:36:43.933Z,19.43
2023-06-07T03:39:14.351Z,18.87
2023-06-07T03:41:41.629Z,16.43
2023-06-07T03:44:09.978Z,18.47
2023-06-07T03:46:39.158Z,20.50
2023-06-07T03:49:05.841Z,18.77
2023-06-07T03:51:34.055Z,26.67
2023-06-07T03:54:03.255Z,21.30
2023-06-07T03:56:30.747Z,20.93
2023-06-07T03:58:58.263Z,17.97
2023-06-07T04:01:26.969Z,21.77
2023-06-07T04:03:55.985Z,17.03
2023-06-07T04:06:25.195Z,22.80
2023-06-07T04:08:53.146Z,19.17
2023-06-07T04:11:20.491Z,23.97
2023-06-07T04:13:47.738Z,24.60
2023-06-07T04:16:14.523Z,18.77
2023-06-07T04:18:44.481Z,19.50
2023-06-07T04:21:13.791Z,21.83
2023-06-07T04:23:42.967Z,18.07
2023-06-07T04:26:10.949Z,19.83
2023-06-07T04:28:41.760Z,25.03
2023-06-07T04:31:09.958Z,18.20
2023-06-07T04:33:38.571Z,20.87
2023-06-07T04:36:06.082Z,16.77
2023-06-07T04:38:33.609Z,12.43
2023-06-07T04:41:08.810Z,19.37
2023-06-07T04:43:42.133Z,13.70
2023-06-07T04:46:14.170Z,18.33
2023-06-07T04:48:42.407Z,19.13
2023-06-07T04:51:09.730Z,21.53
2023-06-07T04:53:44.043Z,22.57
2023-06-07T04:56:13.956Z,21.27
2023-06-07T04:58:41.657Z,17.80
2023-06-07T05:01:12.416Z,17.37
2023-06-07T05:03:43.671Z,18.57
2023-06-07T05:06:12.946Z,14.23
2023-06-07T05:08:40.142Z,13.00
2023-06-07T05:11:07.394Z,20.30
2023-06-07T05:13:34.140Z,21.10
2023-06-07T05:16:02.387Z,9.80
2023-06-07T05:18:29.806Z,11.63
2023-06-07T05:20:58.620Z,12.60
2023-06-07T05:23:26.882Z,16.10
2023-06-07T05:25:54.484Z,25.93
2023-06-07T05:28:22.056Z,18.10
2023-06-07T05:30:52.910Z,18.70
2023-06-07T05:33:22.408Z,16.10
2023-06-07T05:35:49.365Z,13.20
2023-06-07T05:38:17.997Z,19.50
2023-06-07T05:40:44.634Z,19.47
2023-06-07T05:43:11.613Z,13.50
2023-06-07T05:45:41.342Z,12.17
2023-06-07T05:48:08.834Z,17.43
2023-06-07T05:50:35.640Z,14.90
2023-06-07T05:53:02.261Z,19.27
2023-06-07T05:55:29.629Z,14.30
2023-06-07T05:57:58.358Z,17.47
2023-06-07T06:00:25.839Z,16.07
2023-06-07T06:02:54.076Z,13.83
2023-06-07T06:05:29.137Z,16.53
2023-06-07T06:07:58.000Z,24.17
2023-06-07T06:10:25.852Z,17.33
2023-06-07T06:12:52.678Z,18.57
2023-06-07T06:15:19.367Z,19.00
2023-06-07T06:17:46.133Z,12.47
2023-06-07T06:20:13.425Z,14.10
2023-06-07T06:22:40.265Z,20.90
2023-06-07T06:25:07.363Z,11.23
2023-06-07T06:27:34.260Z,19.57
2023-06-07T06:30:01.062Z,13.47
2023-06-07T06:32:27.754Z,15.43
2023-06-07T06:34:54.423Z,23.60
2023-06-07T06:37:21.587Z,12.23
2023-06-07T06:39:49.574Z,22.43
2023-06-07T06:42:16.446Z,13.80
2023-06-07T06:45:11.600Z,15.47
2023-06-07T06:47:42.586Z,15.27
2023-06-07T06:50:30.323Z,15.77
2023-06-07T06:53:01.992Z,9.80
2023-06-07T06:55:28.830Z,12.80
2023-06-07T06:57:56.257Z,17.50
2023-06-07T07:00:24.485Z,12.50
2023-06-07T07:02:51.342Z,12.37
2023-06-07T07:05:17.978Z,10.90
2023-06-07T07:07:44.672Z,14.87
2023-06-07T07:10:13.204Z,15.07
2023-06-07T07:12:40.766Z,14.03
2023-06-07T07:15:07.668Z,9.40
2023-06-07T07:17:34.566Z,21.37
2023-06-07T07:20:01.242Z,19.73
2023-06-07T07:22:28.784Z,12.90
2023-06-07T07:24:56.427Z,14.70
2023-06-07T07:27:24.038Z,13.53
2023-06-07T07:29:50.653Z,15.87
2023-06-07T07:32:17.317Z,11.98
2023-06-07T07:34:44.045Z,16.08
2023-06-07T07:37:11.231Z,11.63
2023-06-07T07:39:38.956Z,11.82
2023-06-07T07:42:06.815Z,17.65
2023-06-07T07:44:34.638Z,8.48
2023-06-07T07:47:01.772Z,17.48
2023-06-07T07:49:28.474Z,12.20
2023-06-07T07:51:58.197Z,10.03
2023-06-07T07:54:25.544Z,8.20
2023-06-07T07:56:52.354Z,19.07
2023-06-07T07:59:19.037Z,14.10
2023-06-07T08:01:46.623Z,7.70
2023-06-07T08:04:13.752Z,10.43
2023-06-07T08:06:40.834Z,9.47
2023-06-07T08:09:07.443Z,11.43
2023-06-07T08:11:34.295Z,10.43
2023-06-07T08:14:00.899Z,9.37
2023-06-07T08:16:27.679Z,14.10
2023-06-07T08:19:00.576Z,9.27
2023-06-07T08:21:27.502Z,18.70
2023-06-07T08:23:56.154Z,10.73
2023-06-07T08:26:23.502Z,9.10
2023-06-07T08:28:50.139Z,9.97
2023-06-07T08:31:18.959Z,11.30
2023-06-07T08:33:47.353Z,12.50
2023-06-07T08:36:16.085Z,16.20
2023-06-07T08:38:42.759Z,10.73
2023-06-07T08:41:10.166Z,8.40
2023-06-07T08:43:38.840Z,12.07
2023-06-07T08:46:06.582Z,10.63
2023-06-07T08:48:37.133Z,9.50
2023-06-07T08:51:08.174Z,13.80
2023-06-07T08:53:48.017Z,11.97
2023-06-07T08:56:18.189Z,8.80
2023-06-07T08:58:45.401Z,9.43
2023-06-07T09:01:12.902Z,8.43
2023-06-07T09:03:41.190Z,7.97
2023-06-07T09:06:09.642Z,11.37
2023-06-07T09:08:37.141Z,13.63
2023-06-07T09:11:03.777Z,9.47
2023-06-07T09:13:31.283Z,15.00
2023-06-07T09:16:00.449Z,11.57
2023-06-07T09:18:43.902Z,7.20
2023-06-07T09:21:21.501Z,11.67
2023-06-07T09:23:49.454Z,15.33
2023-06-07T09:26:17.328Z,8.03
2023-06-07T09:28:46.953Z,13.67
2023-06-07T09:31:14.597Z,8.93
2023-06-07T09:33:41.343Z,12.00
2023-06-07T09:36:16.321Z,7.27
2023-06-07T09:38:43.397Z,9.47
2023-06-07T09:41:14.135Z,9.70
2023-06-07T09:43:45.130Z,10.20
2023-06-07T09:46:12.779Z,7.70
2023-06-07T09:48:50.892Z,16.93
2023-06-07T09:51:19.701Z,9.13
2023-06-07T09:53:50.810Z,9.57
2023-06-07T09:56:18.000Z,7.20
2023-06-07T09:58:47.362Z,7.93
2023-06-07T10:01:14.520Z,10.20
2023-06-07T10:03:48.031Z,6.97
2023-06-07T10:06:17.475Z,9.40
2023-06-07T10:08:45.697Z,6.27
2023-06-07T10:11:14.861Z,10.20
2023-06-07T10:13:43.138Z,8.10
2023-06-07T10:16:11.642Z,10.77
2023-06-07T10:18:41.083Z,8.57
2023-06-07T10:21:15.252Z,10.25
2023-06-07T10:23:51.597Z,5.65
2023-06-07T10:26:30.088Z,8.15
2023-06-07T10:29:10.822Z,6.70
2023-06-07T10:32:07.940Z,13.32
2023-06-07T10:34:37.509Z,8.57
2023-06-07T10:37:08.369Z,6.47
2023-06-07T10:39:37.274Z,10.13
2023-06-07T10:42:04.189Z,5.53
2023-06-07T10:44:31.693Z,8.27
2023-06-07T10:47:23.144Z,3.47
2023-06-07T10:49:50.677Z,8.68
2023-06-07T10:52:18.004Z,7.65
2023-06-07T10:54:45.478Z,6.60
2023-06-07T10:57:12.596Z,9.35
2023-06-07T10:59:40.674Z,7.30
2023-06-07T11:02:24.916Z,6.45
2023-06-07T11:05:04.485Z,8.43
2023-06-07T11:07:33.076Z,10.20
2023-06-07T11:10:06.813Z,6.88
2023-06-07T11:12:37.131Z,10.05
2023-06-07T11:15:23.210Z,5.88
2023-06-07T11:17:57.852Z,9.07
2023-06-07T11:20:37.498Z,8.18
2023-06-07T11:23:31.739Z,3.78
2023-06-07T11:26:08.111Z,6.53
2023-06-07T11:28:39.400Z,7.47
2023-06-07T11:31:13.878Z,9.18
2023-06-07T11:33:44.848Z,6.60
2023-06-07T11:36:12.290Z,4.18
2023-06-07T11:38:40.147Z,8.35
2023-06-07T11:41:07.016Z,4.65
2023-06-07T11:43:34.583Z,8.45
2023-06-07T11:46:01.747Z,6.85
2023-06-07T11:48:30.159Z,6.47
2023-06-07T11:50:57.744Z,7.90
2023-06-07T11:53:24.818Z,6.43
2023-06-07T11:55:53.880Z,6.30
2023-06-07T11:58:20.568Z,7.28
2023-06-07T12:00:48.804Z,4.32
2023-06-07T12:03:17.576Z,6.00
2023-06-07T12:05:46.055Z,5.40
2023-06-07T12:08:15.715Z,8.18
2023-06-07T12:10:42.772Z,3.58
2023-06-07T12:13:14.719Z,6.50
2023-06-07T12:16:00.260Z,3.17
2023-06-07T12:18:33.766Z,3.42
2023-06-07T12:21:04.938Z,7.47
2023-06-07T12:23:32.847Z,3.88
2023-06-07T12:26:16.204Z,4.18
2023-06-07T12:28:44.618Z,6.35
2023-06-07T12:31:21.139Z,5.22
2023-06-07T12:33:58.832Z,5.45
2023-06-07T12:36:31.604Z,6.95
2023-06-07T12:39:06.774Z,6.03
2023-06-07T12:41:34.420Z,6.40
2023-06-07T12:44:04.568Z,17.00
2023-06-07T12:46:32.165Z,3.83
2023-06-07T12:48:58.929Z,5.57
2023-06-07T12:51:26.852Z,3.90
2023-06-07T12:53:54.740Z,5.40
2023-06-07T12:56:25.104Z,7.35
2023-06-07T12:58:51.962Z,4.28
2023-06-07T13:01:18.863Z,5.70
2023-06-07T13:03:46.416Z,9.65
2023-06-07T13:06:13.184Z,3.50
2023-06-07T13:08:39.853Z,5.88
2023-06-07T13:11:07.229Z,8.30
2023-06-07T13:13:34.269Z,7.03
2023-06-07T13:16:01.891Z,3.75
2023-06-07T13:18:30.455Z,5.88
2023-06-07T13:20:57.281Z,4.30
2023-06-07T13:23:24.709Z,6.78
2023-06-07T13:25:52.010Z,6.55
2023-06-07T13:28:20.810Z,5.50
2023-06-07T13:30:48.438Z,7.47
2023-06-07T13:33:19.418Z,5.68
2023-06-07T13:35:46.159Z,11.43
2023-06-07T13:38:13.283Z,4.72
2023-06-07T13:40:40.311Z,3.97
2023-06-07T13:43:07.838Z,7.50
2023-06-07T13:45:34.895Z,6.03
2023-06-07T13:48:02.650Z,5.07
2023-06-07T13:50:30.950Z,4.93
2023-06-07T13:52:57.743Z,3.47
2023-06-07T13:55:25.042Z,3.40
2023-06-07T13:57:52.194Z,7.43
2023-06-07T14:00:19.538Z,5.78
2023-06-07T14:02:46.670Z,10.80
2023-06-07T14:05:14.656Z,5.75
2023-06-07T14:07:42.031Z,3.40
2023-06-07T14:10:09.533Z,7.80
2023-06-07T14:12:36.131Z,7.68
2023-06-07T14:15:03.166Z,7.53
2023-06-07T14:17:30.543Z,5.85
2023-06-07T14:19:57.452Z,4.13
2023-06-07T14:22:24.090Z,6.47
2023-06-07T14:24:51.022Z,13.45
2023-06-07T14:27:17.625Z,5.70
2023-06-07T14:29:44.264Z,6.85
2023-06-07T14:32:11.350Z,8.07
2023-06-07T14:34:37.959Z,4.38
2023-06-07T14:37:04.619Z,4.07
2023-06-07T14:39:31.719Z,4.10
2023-06-07T14:41:58.391Z,22.70
2023-06-07T14:44:25.345Z,9.63
2023-06-07T14:46:52.237Z,3.65
2023-06-07T14:49:18.857Z,4.28
2023-06-07T14:51:48.868Z,6.78
2023-06-07T14:54:16.035Z,6.40
2023-06-07T14:56:42.838Z,6.72
2023-06-07T14:59:14.017Z,7.60
2023-06-07T15:01:41.413Z,9.05
2023-06-07T15:04:08.936Z,8.45
2023-06-07T15:06:36.831Z,6.47
2023-06-07T15:09:04.631Z,5.45
2023-06-07T15:11:31.397Z,4.28
2023-06-07T15:13:58.094Z,6.93
2023-06-07T15:16:24.890Z,4.70
2023-06-07T15:18:51.747Z,11.70
2023-06-07T15:21:20.171Z,8.10
2023-06-07T15:23:49.788Z,4.40
2023-06-07T15:26:17.479Z,4.90
2023-06-07T15:28:44.691Z,6.90
2023-06-07T15:31:11.375Z,5.35
2023-06-07T15:33:38.108Z,4.25
2023-06-07T15:36:05.288Z,7.85
2023-06-07T15:38:38.229Z,4.88
2023-06-07T15:41:09.249Z,6.97
2023-06-07T15:43:37.031Z,5.53
2023-06-07T15:46:04.501Z,8.23
2023-06-07T15:48:31.642Z,7.70
2023-06-07T15:50:58.650Z,3.80
2023-06-07T15:53:25.401Z,4.33
2023-06-07T15:55:52.181Z,5.95
2023-06-07T15:58:19.163Z,8.10
2023-06-07T16:00:49.496Z,9.38
2023-06-07T16:03:17.035Z,4.10
2023-06-07T16:05:43.834Z,3.67
2023-06-07T16:08:14.094Z,8.40
2023-06-07T16:10:43.397Z,11.80
2023-06-07T16:13:10.222Z,8.43
2023-06-07T16:15:37.457Z,5.80
2023-06-07T16:18:05.740Z,9.13
2023-06-07T16:20:32.762Z,4.97
2023-06-07T16:22:59.510Z,11.50
2023-06-07T16:25:26.144Z,3.57
2023-06-07T16:27:52.733Z,7.20
2023-06-07T16:30:19.664Z,3.63
2023-06-07T16:32:46.513Z,4.67
2023-06-07T16:35:13.176Z,8.73
2023-06-07T16:37:39.776Z,7.83
2023-06-07T16:40:07.251Z,8.47
2023-06-07T16:42:34.107Z,7.73
2023-06-07T16:45:00.769Z,6.10
2023-06-07T16:47:28.466Z,3.90
2023-06-07T16:49:55.420Z,5.87
2023-06-07T16:52:22.417Z,6.17
2023-06-07T16:54:49.033Z,7.23
2023-06-07T16:57:15.677Z,14.63
2023-06-07T16:59:42.455Z,5.37
2023-06-07T17:02:09.233Z,7.50
2023-06-07T17:04:36.597Z,6.23
2023-06-07T17:07:04.190Z,10.33
2023-06-07T17:09:31.257Z,8.43
2023-06-07T17:11:58.059Z,5.43
2023-06-07T17:14:24.759Z,4.37
2023-06-07T17:16:52.207Z,9.07
2023-06-07T17:19:19.751Z,10.80
2023-06-07T17:21:46.503Z,5.10
2023-06-07T17:24:13.335Z,12.77
2023-06-07T17:26:40.111Z,7.10
2023-06-07T17:29:27.593Z,3.67
2023-06-07T17:31:54.168Z,11.27
2023-06-07T17:34:20.975Z,8.27
2023-06-07T17:36:47.787Z,6.73
2023-06-07T17:39:16.095Z,8.70
2023-06-07T17:41:42.904Z,26.57
2023-06-07T17:44:09.808Z,10.43
2023-06-07T17:46:37.052Z,7.37
2023-06-07T17:49:04.041Z,4.87
2023-06-07T17:51:31.217Z,5.40
2023-06-07T17:53:57.965Z,9.20
2023-06-07T17:56:26.628Z,10.43
2023-06-07T17:58:53.805Z,8.30
2023-06-07T18:01:20.624Z,7.93
2023-06-07T18:03:47.392Z,8.77
2023-06-07T18:06:14.140Z,8.17
2023-06-07T18:08:40.773Z,7.57
2023-06-07T18:11:08.264Z,6.70
2023-06-07T18:13:35.979Z,12.10
2023-06-07T18:16:02.838Z,24.13
2023-06-07T18:18:30.822Z,10.43
2023-06-07T18:20:57.592Z,11.97
2023-06-07T18:23:24.366Z,9.27
2023-06-07T18:25:51.351Z,10.50
2023-06-07T18:28:18.468Z,9.73
2023-06-07T18:30:45.157Z,12.13
2023-06-07T18:33:11.973Z,10.93
2023-06-07T18:35:38.684Z,7.23
2023-06-07T18:38:05.314Z,5.30
2023-06-07T18:40:33.464Z,16.33
2023-06-07T18:43:00.137Z,9.70
2023-06-07T18:45:27.180Z,6.93
2023-06-07T18:47:54.023Z,10.23
2023-06-07T18:50:21.204Z,10.33
2023-06-07T18:52:47.907Z,11.60
2023-06-07T18:55:14.774Z,12.37
2023-06-07T18:57:41.596Z,13.47
2023-06-07T19:00:08.857Z,15.70
2023-06-07T19:02:37.144Z,17.57
2023-06-07T19:05:04.344Z,20.93
2023-06-07T19:07:31.568Z,13.70
2023-06-07T19:09:58.318Z,11.53
2023-06-07T19:12:28.100Z,11.10
2023-06-07T19:14:56.386Z,15.37
2023-06-07T19:17:23.144Z,18.33
2023-06-07T19:19:49.930Z,11.60
2023-06-07T19:22:16.569Z,11.30
2023-06-07T19:24:46.746Z,11.83
2023-06-07T19:27:13.629Z,8.47
2023-06-07T19:29:41.898Z,6.40
2023-06-07T19:32:10.043Z,6.27
2023-06-07T19:34:37.340Z,6.97
2023-06-07T19:37:04.534Z,4.20
2023-06-07T19:39:34.367Z,4.10
2023-06-07T19:42:04.443Z,11.70
2023-06-07T19:44:31.260Z,13.70
2023-06-07T19:47:03.276Z,14.47
2023-06-07T19:49:30.791Z,9.80
2023-06-07T19:51:57.558Z,7.23
2023-06-07T19:54:24.218Z,6.67
2023-06-07T19:56:51.029Z,12.20
2023-06-07T19:59:18.064Z,12.90
2023-06-07T20:01:44.972Z,7.70
2023-06-07T20:04:14.379Z,13.40
2023-06-07T20:06:41.251Z,6.70
2023-06-07T20:09:08.433Z,4.60
2023-06-07T20:11:35.321Z,14.27
2023-06-07T20:14:02.127Z,10.90
2023-06-07T20:16:29.650Z,6.60
2023-06-07T20:18:56.446Z,19.33
2023-06-07T20:21:23.439Z,7.90
2023-06-07T20:23:50.287Z,5.13
2023-06-07T20:26:18.206Z,7.10
2023-06-07T20:28:45.203Z,8.17
2023-06-07T20:31:12.347Z,10.93
2023-06-07T20:33:40.128Z,10.67
2023-06-07T20:36:07.629Z,12.50
2023-06-07T20:38:34.333Z,6.50
2023-06-07T20:41:02.048Z,12.10
2023-06-07T20:43:29.561Z,14.97
2023-06-07T20:45:56.554Z,11.73
2023-06-07T20:48:23.650Z,11.53
2023-06-07T20:50:50.371Z,14.00
2023-06-07T20:53:17.365Z,16.83
2023-06-07T20:55:44.282Z,9.30
2023-06-07T20:58:11.390Z,11.77
2023-06-07T21:00:41.038Z,9.00
2023-06-07T21:03:08.534Z,4.90
2023-06-07T21:05:35.500Z,9.60
2023-06-07T21:08:02.960Z,7.30
2023-06-07T21:10:29.685Z,13.03
2023-06-07T21:12:56.314Z,15.80
2023-06-07T21:15:23.589Z,7.50
2023-06-07T21:17:50.350Z,17.20
2023-06-07T21:20:18.478Z,12.67
2023-06-07T21:22:45.151Z,10.50
2023-06-07T21:25:11.985Z,9.83
2023-06-07T21:27:38.766Z,16.03
2023-06-07T21:30:06.404Z,12.77
2023-06-07T21:32:33.286Z,9.33
2023-06-07T21:35:00.436Z,10.70
2023-06-07T21:37:27.148Z,8.50
2023-06-07T21:39:53.827Z,10.10
2023-06-07T21:42:20.678Z,7.33
2023-06-07T21:44:47.921Z,7.20
2023-06-07T21:47:14.615Z,5.27
2023-06-07T21:49:41.266Z,8.93
2023-06-07T21:52:08.800Z,5.23
2023-06-07T21:54:44.426Z,8.73
2023-06-07T21:57:11.412Z,7.57
2023-06-07T21:59:38.124Z,7.40
2023-06-07T22:02:06.396Z,6.70
2023-06-07T22:04:33.243Z,9.27
2023-06-07T22:07:00.217Z,9.57
2023-06-07T22:09:26.968Z,8.53
2023-06-07T22:11:55.476Z,8.60
2023-06-07T22:14:22.945Z,11.87
2023-06-07T22:16:50.394Z,12.43
2023-06-07T22:19:20.119Z,10.17
2023-06-07T22:21:49.743Z,16.20
2023-06-07T22:24:19.187Z,10.87
2023-06-07T22:26:46.993Z,16.30
2023-06-07T22:29:14.172Z,13.13
2023-06-07T22:31:41.107Z,11.70
2023-06-07T22:34:08.962Z,11.93
2023-06-07T22:36:41.426Z,13.77
2023-06-07T22:39:10.158Z,16.33
2023-06-07T22:41:37.846Z,13.57
2023-06-07T22:44:05.188Z,14.33
2023-06-07T22:46:34.931Z,14.53
2023-06-07T22:49:01.938Z,9.00
2023-06-07T22:51:31.660Z,20.40
2023-06-07T22:53:58.651Z,16.60
2023-06-07T22:56:26.046Z,16.77
2023-06-07T22:58:52.727Z,16.23
2023-06-07T23:01:19.894Z,12.47
2023-06-07T23:03:47.998Z,18.33
2023-06-07T23:06:15.310Z,19.63
2023-06-07T23:08:41.996Z,19.33
2023-06-07T23:11:08.985Z,14.03
2023-06-07T23:13:36.169Z,15.93
2023-06-07T23:16:03.627Z,17.00
2023-06-07T23:18:31.119Z,19.57
2023-06-07T23:20:58.336Z,12.10
2023-06-07T23:23:25.076Z,22.20
2023-06-07T23:25:51.843Z,24.57
2023-06-07T23:28:18.499Z,19.00
2023-06-07T23:30:45.136Z,16.90
2023-06-07T23:33:12.977Z,20.10
2023-06-07T23:35:42.033Z,13.60
2023-06-07T23:38:08.882Z,16.00
2023-06-07T23:40:35.660Z,13.20
2023-06-07T23:43:05.182Z,13.47
2023-06-07T23:45:32.317Z,15.27
2023-06-07T23:48:00.104Z,14.67
2023-06-07T23:50:26.983Z,15.73
2023-06-07T23:52:54.128Z,19.13
2023-06-07T23:55:21.294Z,21.10
2023-06-07T23:57:48.447Z,17.63
